Terminal Aerodrome Forecast
Issued by NWS

Home | Current Version | Previous Version | Text Only | Print | Product List | Glossary On
Versions: 1 2 3 4 5 6 7 8 9 10 11 12 13 14
000
FTUS44 KLIX 031521 AAA
TAFMSY
TAF AMD
KMSY 031521Z 0315/0412 04010KT P6SM VCSH BKN025 BKN160 OVC200
     FM031700 14008KT P6SM VCTS BKN035CB
      TEMPO 0318/0322 4SM -TSRA BKN030CB
     FM040100 VRB05KT P6SM FEW040 SCT110 BKN250=

USA.gov is the U.S. government's official web portal to all federal, state and local government web resources and services.